sensor_id;sensor_type;location;lat;lon;timestamp;pressure;altitude;pressure_sealevel;temperature;humidity
27202;BME280;14717;46.924;15.474;2024-02-04T00:00:20;98422.28;;;1.22;100.00
27202;BME280;14717;46.924;15.474;2024-02-04T00:02:46;98414.84;;;1.11;100.00
27202;BME280;14717;46.924;15.474;2024-02-04T00:05:11;98401.16;;;1.24;100.00
27202;BME280;14717;46.924;15.474;2024-02-04T00:07:36;98399.38;;;1.35;100.00
27202;BME280;14717;46.924;15.474;2024-02-04T00:10:02;98408.78;;;1.33;100.00
27202;BME280;14717;46.924;15.474;2024-02-04T00:12:28;98399.44;;;0.98;100.00
27202;BME280;14717;46.924;15.474;2024-02-04T00:14:53;98409.75;;;0.90;100.00
27202;BME280;14717;46.924;15.474;2024-02-04T00:17:18;98402.50;;;0.84;100.00
27202;BME280;14717;46.924;15.474;2024-02-04T00:19:44;98385.69;;;0.93;100.00
27202;BME280;14717;46.924;15.474;2024-02-04T00:22:09;98399.84;;;1.02;100.00
27202;BME280;14717;46.924;15.474;2024-02-04T00:24:34;98386.81;;;1.10;100.00
27202;BME280;14717;46.924;15.474;2024-02-04T00:27:00;98389.28;;;1.12;100.00
27202;BME280;14717;46.924;15.474;2024-02-04T00:29:25;98387.56;;;1.24;100.00
27202;BME280;14717;46.924;15.474;2024-02-04T00:31:51;98389.38;;;1.29;100.00
27202;BME280;14717;46.924;15.474;2024-02-04T00:34:16;98402.38;;;1.27;100.00
27202;BME280;14717;46.924;15.474;2024-02-04T00:36:42;98392.00;;;1.12;100.00
27202;BME280;14717;46.924;15.474;2024-02-04T00:39:07;98395.03;;;1.04;100.00
27202;BME280;14717;46.924;15.474;2024-02-04T00:41:33;98399.59;;;0.79;100.00
27202;BME280;14717;46.924;15.474;2024-02-04T00:43:59;98404.81;;;0.81;100.00
27202;BME280;14717;46.924;15.474;2024-02-04T00:46:24;98411.06;;;0.81;100.00
27202;BME280;14717;46.924;15.474;2024-02-04T00:48:50;98405.09;;;0.66;100.00
27202;BME280;14717;46.924;15.474;2024-02-04T00:51:15;98411.31;;;0.73;100.00
27202;BME280;14717;46.924;15.474;2024-02-04T00:53:45;98410.19;;;0.87;100.00
27202;BME280;14717;46.924;15.474;2024-02-04T00:56:11;98407.94;;;0.84;100.00
27202;BME280;14717;46.924;15.474;2024-02-04T00:58:37;98399.72;;;0.90;100.00
27202;BME280;14717;46.924;15.474;2024-02-04T01:01:03;98390.72;;;0.90;100.00
27202;BME280;14717;46.924;15.474;2024-02-04T01:03:29;98391.06;;;1.00;100.00
27202;BME280;14717;46.924;15.474;2024-02-04T01:05:54;98367.66;;;0.99;100.00
27202;BME280;14717;46.924;15.474;2024-02-04T01:08:20;98376.25;;;0.65;100.00
27202;BME280;14717;46.924;15.474;2024-02-04T01:10:46;98386.44;;;0.76;100.00
27202;BME280;14717;46.924;15.474;2024-02-04T01:13:12;98398.34;;;0.75;100.00
27202;BME280;14717;46.924;15.474;2024-02-04T01:15:37;98392.50;;;0.72;100.00
27202;BME280;14717;46.924;15.474;2024-02-04T01:18:03;98383.94;;;0.75;100.00
27202;BME280;14717;46.924;15.474;2024-02-04T01:20:28;98384.53;;;0.77;100.00
27202;BME280;14717;46.924;15.474;2024-02-04T01:22:53;98394.34;;;0.84;100.00
27202;BME280;14717;46.924;15.474;2024-02-04T01:25:19;98399.56;;;0.85;100.00
27202;BME280;14717;46.924;15.474;2024-02-04T01:27:44;98405.31;;;0.65;100.00
27202;BME280;14717;46.924;15.474;2024-02-04T01:30:10;98400.72;;;0.65;100.00
27202;BME280;14717;46.924;15.474;2024-02-04T01:32:35;98401.66;;;0.77;100.00
27202;BME280;14717;46.924;15.474;2024-02-04T01:35:00;98396.06;;;0.72;100.00
27202;BME280;14717;46.924;15.474;2024-02-04T01:37:25;98395.44;;;0.70;100.00
27202;BME280;14717;46.924;15.474;2024-02-04T01:39:51;98392.13;;;0.68;100.00
27202;BME280;14717;46.924;15.474;2024-02-04T01:42:16;98390.09;;;0.57;100.00
27202;BME280;14717;46.924;15.474;2024-02-04T01:44:42;98405.41;;;0.45;100.00
27202;BME280;14717;46.924;15.474;2024-02-04T01:47:08;98403.09;;;0.49;100.00
27202;BME280;14717;46.924;15.474;2024-02-04T01:49:34;98417.63;;;0.67;100.00
27202;BME280;14717;46.924;15.474;2024-02-04T01:52:01;98402.75;;;0.76;100.00
27202;BME280;14717;46.924;15.474;2024-02-04T01:54:27;98402.31;;;0.79;100.00
27202;BME280;14717;46.924;15.474;2024-02-04T01:56:54;98400.47;;;0.73;100.00
27202;BME280;14717;46.924;15.474;2024-02-04T01:59:22;98406.66;;;0.86;100.00
27202;BME280;14717;46.924;15.474;2024-02-04T02:01:53;98402.03;;;0.87;100.00
27202;BME280;14717;46.924;15.474;2024-02-04T02:04:18;98398.22;;;0.94;100.00
27202;BME280;14717;46.924;15.474;2024-02-04T02:06:45;98391.78;;;0.89;100.00
27202;BME280;14717;46.924;15.474;2024-02-04T02:09:11;98390.94;;;0.88;100.00
27202;BME280;14717;46.924;15.474;2024-02-04T02:11:43;98383.69;;;0.83;100.00
27202;BME280;14717;46.924;15.474;2024-02-04T02:14:19;98373.97;;;0.93;100.00
27202;BME280;14717;46.924;15.474;2024-02-04T02:16:48;98367.84;;;0.73;100.00
27202;BME280;14717;46.924;15.474;2024-02-04T02:24:38;98358.91;;;0.66;100.00
27202;BME280;14717;46.924;15.474;2024-02-04T02:27:06;98365.38;;;0.65;100.00
27202;BME280;14717;46.924;15.474;2024-02-04T02:29:32;98354.50;;;0.65;100.00
27202;BME280;14717;46.924;15.474;2024-02-04T02:32:01;98368.00;;;0.47;100.00
27202;BME280;14717;46.924;15.474;2024-02-04T02:34:29;98364.66;;;0.45;100.00
27202;BME280;14717;46.924;15.474;2024-02-04T02:36:56;98366.34;;;0.46;100.00
27202;BME280;14717;46.924;15.474;2024-02-04T02:39:24;98371.59;;;0.42;100.00
27202;BME280;14717;46.924;15.474;2024-02-04T02:41:55;98365.38;;;0.35;100.00
27202;BME280;14717;46.924;15.474;2024-02-04T02:44:23;98369.31;;;0.39;100.00
27202;BME280;14717;46.924;15.474;2024-02-04T02:46:50;98385.97;;;0.48;100.00
27202;BME280;14717;46.924;15.474;2024-02-04T02:49:16;98383.06;;;0.43;100.00
27202;BME280;14717;46.924;15.474;2024-02-04T02:51:41;98387.31;;;0.33;100.00
27202;BME280;14717;46.924;15.474;2024-02-04T02:54:06;98356.75;;;0.38;100.00
27202;BME280;14717;46.924;15.474;2024-02-04T02:56:32;98353.63;;;0.41;100.00
27202;BME280;14717;46.924;15.474;2024-02-04T02:58:57;98356.34;;;0.41;100.00
27202;BME280;14717;46.924;15.474;2024-02-04T03:01:22;98400.88;;;0.40;100.00
27202;BME280;14717;46.924;15.474;2024-02-04T03:03:49;98372.78;;;0.52;100.00
27202;BME280;14717;46.924;15.474;2024-02-04T03:06:14;98361.09;;;0.51;100.00
27202;BME280;14717;46.924;15.474;2024-02-04T03:08:40;98394.38;;;0.41;100.00
27202;BME280;14717;46.924;15.474;2024-02-04T03:11:05;98353.38;;;0.48;100.00
27202;BME280;14717;46.924;15.474;2024-02-04T03:13:31;98373.00;;;0.50;100.00
27202;BME280;14717;46.924;15.474;2024-02-04T03:15:56;98362.34;;;0.49;100.00
27202;BME280;14717;46.924;15.474;2024-02-04T03:18:21;98366.69;;;0.56;100.00
27202;BME280;14717;46.924;15.474;2024-02-04T03:20:47;98379.19;;;0.64;100.00
27202;BME280;14717;46.924;15.474;2024-02-04T03:23:12;98370.41;;;0.62;100.00
27202;BME280;14717;46.924;15.474;2024-02-04T03:25:37;98378.44;;;0.50;100.00
27202;BME280;14717;46.924;15.474;2024-02-04T03:28:03;98379.94;;;0.46;100.00
27202;BME280;14717;46.924;15.474;2024-02-04T03:30:29;98356.75;;;0.38;100.00
27202;BME280;14717;46.924;15.474;2024-02-04T03:32:54;98359.06;;;0.34;100.00
27202;BME280;14717;46.924;15.474;2024-02-04T03:35:20;98369.50;;;0.37;100.00
27202;BME280;14717;46.924;15.474;2024-02-04T03:37:45;98351.78;;;0.35;100.00
27202;BME280;14717;46.924;15.474;2024-02-04T03:40:11;98359.03;;;0.41;100.00
27202;BME280;14717;46.924;15.474;2024-02-04T03:42:36;98346.28;;;0.41;100.00
27202;BME280;14717;46.924;15.474;2024-02-04T03:45:02;98347.56;;;0.39;100.00
27202;BME280;14717;46.924;15.474;2024-02-04T03:47:28;98332.41;;;0.25;100.00
27202;BME280;14717;46.924;15.474;2024-02-04T03:49:53;98353.88;;;0.33;100.00
27202;BME280;14717;46.924;15.474;2024-02-04T03:52:19;98327.78;;;0.32;100.00
27202;BME280;14717;46.924;15.474;2024-02-04T03:54:44;98334.84;;;0.33;100.00
27202;BME280;14717;46.924;15.474;2024-02-04T03:57:09;98340.09;;;0.28;100.00
27202;BME280;14717;46.924;15.474;2024-02-04T03:59:35;98301.22;;;0.34;100.00
27202;BME280;14717;46.924;15.474;2024-02-04T04:02:00;98346.00;;;0.25;100.00
27202;BME280;14717;46.924;15.474;2024-02-04T04:04:25;98317.56;;;0.27;100.00
27202;BME280;14717;46.924;15.474;2024-02-04T04:06:51;98323.34;;;0.37;100.00
27202;BME280;14717;46.924;15.474;2024-02-04T04:09:17;98335.50;;;0.35;100.00
27202;BME280;14717;46.924;15.474;2024-02-04T04:11:42;98335.88;;;0.38;100.00
27202;BME280;14717;46.924;15.474;2024-02-04T04:14:07;98340.03;;;0.41;100.00
27202;BME280;14717;46.924;15.474;2024-02-04T04:16:33;98328.56;;;0.39;100.00
27202;BME280;14717;46.924;15.474;2024-02-04T04:18:58;98338.97;;;0.48;100.00
27202;BME280;14717;46.924;15.474;2024-02-04T04:21:24;98333.31;;;0.49;100.00
27202;BME280;14717;46.924;15.474;2024-02-04T04:23:49;98345.19;;;0.55;100.00
27202;BME280;14717;46.924;15.474;2024-02-04T04:26:14;98356.25;;;0.53;100.00
27202;BME280;14717;46.924;15.474;2024-02-04T04:28:40;98371.56;;;0.48;100.00
27202;BME280;14717;46.924;15.474;2024-02-04T04:31:05;98364.47;;;0.41;100.00
27202;BME280;14717;46.924;15.474;2024-02-04T04:33:31;98380.97;;;0.45;100.00
27202;BME280;14717;46.924;15.474;2024-02-04T04:35:56;98386.03;;;0.36;100.00
27202;BME280;14717;46.924;15.474;2024-02-04T04:38:21;98390.19;;;0.44;100.00
27202;BME280;14717;46.924;15.474;2024-02-04T04:40:47;98363.47;;;0.35;100.00
27202;BME280;14717;46.924;15.474;2024-02-04T04:43:12;98376.03;;;0.30;100.00
27202;BME280;14717;46.924;15.474;2024-02-04T04:45:37;98400.00;;;0.39;100.00
27202;BME280;14717;46.924;15.474;2024-02-04T04:48:03;98353.88;;;0.33;100.00
27202;BME280;14717;46.924;15.474;2024-02-04T04:50:29;98378.94;;;0.35;100.00
27202;BME280;14717;46.924;15.474;2024-02-04T04:52:54;98370.31;;;0.44;100.00
27202;BME280;14717;46.924;15.474;2024-02-04T04:55:19;98339.22;;;0.40;100.00
27202;BME280;14717;46.924;15.474;2024-02-04T04:57:45;98355.16;;;0.30;100.00
27202;BME280;14717;46.924;15.474;2024-02-04T05:00:11;98369.72;;;0.36;100.00
27202;BME280;14717;46.924;15.474;2024-02-04T05:02:39;98367.22;;;0.34;100.00
27202;BME280;14717;46.924;15.474;2024-02-04T05:05:05;98356.84;;;0.25;100.00
27202;BME280;14717;46.924;15.474;2024-02-04T05:07:31;98375.22;;;0.23;100.00
27202;BME280;14717;46.924;15.474;2024-02-04T05:09:56;98380.84;;;0.28;100.00
27202;BME280;14717;46.924;15.474;2024-02-04T05:12:22;98381.16;;;0.07;100.00
27202;BME280;14717;46.924;15.474;2024-02-04T05:14:47;98387.78;;;0.17;100.00
27202;BME280;14717;46.924;15.474;2024-02-04T05:17:12;98373.97;;;0.25;100.00
27202;BME280;14717;46.924;15.474;2024-02-04T05:19:38;98383.25;;;0.05;100.00
27202;BME280;14717;46.924;15.474;2024-02-04T05:22:03;98385.28;;;0.16;100.00
27202;BME280;14717;46.924;15.474;2024-02-04T05:24:28;98394.03;;;0.18;100.00
27202;BME280;14717;46.924;15.474;2024-02-04T05:26:54;98399.25;;;0.26;100.00
27202;BME280;14717;46.924;15.474;2024-02-04T05:29:19;98405.75;;;0.25;100.00
27202;BME280;14717;46.924;15.474;2024-02-04T05:31:45;98397.03;;;0.10;100.00
27202;BME280;14717;46.924;15.474;2024-02-04T05:34:10;98384.47;;;0.09;100.00
27202;BME280;14717;46.924;15.474;2024-02-04T05:36:36;98395.31;;;0.15;100.00
27202;BME280;14717;46.924;15.474;2024-02-04T05:39:11;98378.63;;;0.12;100.00
27202;BME280;14717;46.924;15.474;2024-02-04T05:41:37;98376.53;;;0.14;100.00
27202;BME280;14717;46.924;15.474;2024-02-04T05:44:03;98377.78;;;0.11;100.00
27202;BME280;14717;46.924;15.474;2024-02-04T05:46:28;98359.84;;;0.10;100.00
27202;BME280;14717;46.924;15.474;2024-02-04T05:48:54;98364.25;;;0.05;100.00
27202;BME280;14717;46.924;15.474;2024-02-04T05:51:19;98363.19;;;0.06;100.00
27202;BME280;14717;46.924;15.474;2024-02-04T05:53:44;98384.91;;;0.06;100.00
27202;BME280;14717;46.924;15.474;2024-02-04T05:56:10;98394.97;;;-0.01;100.00
27202;BME280;14717;46.924;15.474;2024-02-04T05:58:35;98396.84;;;0.05;100.00
27202;BME280;14717;46.924;15.474;2024-02-04T06:01:00;98383.00;;;0.06;100.00
27202;BME280;14717;46.924;15.474;2024-02-04T06:03:26;98385.72;;;0.13;100.00
27202;BME280;14717;46.924;15.474;2024-02-04T06:05:51;98387.00;;;0.04;100.00
27202;BME280;14717;46.924;15.474;2024-02-04T06:08:16;98374.09;;;-0.07;100.00
27202;BME280;14717;46.924;15.474;2024-02-04T06:10:42;98394.56;;;-0.11;100.00
27202;BME280;14717;46.924;15.474;2024-02-04T06:13:07;98407.72;;;-0.08;100.00
27202;BME280;14717;46.924;15.474;2024-02-04T06:15:33;98388.28;;;-0.05;100.00
27202;BME280;14717;46.924;15.474;2024-02-04T06:18:00;98415.38;;;0.08;100.00
27202;BME280;14717;46.924;15.474;2024-02-04T06:20:26;98419.59;;;0.04;100.00
27202;BME280;14717;46.924;15.474;2024-02-04T06:22:51;98413.34;;;0.03;100.00
27202;BME280;14717;46.924;15.474;2024-02-04T06:25:16;98397.47;;;-0.06;100.00
27202;BME280;14717;46.924;15.474;2024-02-04T06:27:42;98398.53;;;-0.07;100.00
27202;BME280;14717;46.924;15.474;2024-02-04T06:30:07;98403.53;;;-0.04;100.00
27202;BME280;14717;46.924;15.474;2024-02-04T06:32:33;98431.28;;;-0.02;100.00
27202;BME280;14717;46.924;15.474;2024-02-04T06:34:58;98421.69;;;0.02;100.00
27202;BME280;14717;46.924;15.474;2024-02-04T06:37:23;98440.06;;;0.00;100.00
27202;BME280;14717;46.924;15.474;2024-02-04T06:39:50;98428.16;;;0.01;100.00
27202;BME280;14717;46.924;15.474;2024-02-04T06:42:15;98442.56;;;-0.05;100.00
27202;BME280;14717;46.924;15.474;2024-02-04T06:44:45;98455.53;;;-0.07;100.00
27202;BME280;14717;46.924;15.474;2024-02-04T06:47:11;98446.75;;;-0.09;100.00
27202;BME280;14717;46.924;15.474;2024-02-04T06:49:39;98460.31;;;-0.02;100.00
27202;BME280;14717;46.924;15.474;2024-02-04T06:52:04;98440.03;;;0.06;100.00
27202;BME280;14717;46.924;15.474;2024-02-04T06:54:30;98457.34;;;0.18;100.00
27202;BME280;14717;46.924;15.474;2024-02-04T06:56:55;98437.31;;;0.06;100.00
27202;BME280;14717;46.924;15.474;2024-02-04T06:59:20;98441.94;;;-0.01;100.00
27202;BME280;14717;46.924;15.474;2024-02-04T07:01:46;98430.00;;;0.13;100.00
27202;BME280;14717;46.924;15.474;2024-02-04T07:04:12;98433.50;;;0.27;100.00
27202;BME280;14717;46.924;15.474;2024-02-04T07:06:38;98432.81;;;0.38;100.00
27202;BME280;14717;46.924;15.474;2024-02-04T07:09:03;98438.63;;;0.47;100.00
27202;BME280;14717;46.924;15.474;2024-02-04T07:11:29;98435.91;;;0.47;100.00
27202;BME280;14717;46.924;15.474;2024-02-04T07:13:54;98431.97;;;0.43;100.00
27202;BME280;14717;46.924;15.474;2024-02-04T07:16:24;98434.81;;;0.61;100.00
27202;BME280;14717;46.924;15.474;2024-02-04T07:18:50;98442.25;;;0.72;100.00
27202;BME280;14717;46.924;15.474;2024-02-04T07:21:15;98435.50;;;0.87;100.00
27202;BME280;14717;46.924;15.474;2024-02-04T07:23:41;98429.13;;;1.00;100.00
27202;BME280;14717;46.924;15.474;2024-02-04T07:26:06;98424.81;;;1.17;100.00
27202;BME280;14717;46.924;15.474;2024-02-04T07:28:32;98426.19;;;1.32;100.00
27202;BME280;14717;46.924;15.474;2024-02-04T07:30:57;98444.94;;;1.46;100.00
27202;BME280;14717;46.924;15.474;2024-02-04T07:33:23;98459.69;;;1.57;100.00
27202;BME280;14717;46.924;15.474;2024-02-04T07:35:48;98458.72;;;1.69;100.00
27202;BME280;14717;46.924;15.474;2024-02-04T07:38:14;98450.66;;;1.80;100.00
27202;BME280;14717;46.924;15.474;2024-02-04T07:40:39;98454.00;;;1.82;100.00
27202;BME280;14717;46.924;15.474;2024-02-04T07:43:04;98451.63;;;1.92;100.00
27202;BME280;14717;46.924;15.474;2024-02-04T07:45:30;98460.78;;;1.98;100.00
27202;BME280;14717;46.924;15.474;2024-02-04T07:47:55;98452.16;;;2.01;100.00
27202;BME280;14717;46.924;15.474;2024-02-04T07:50:21;98446.72;;;2.01;100.00
27202;BME280;14717;46.924;15.474;2024-02-04T07:52:46;98451.69;;;2.04;100.00
27202;BME280;14717;46.924;15.474;2024-02-04T07:55:12;98458.75;;;2.11;100.00
27202;BME280;14717;46.924;15.474;2024-02-04T07:57:37;98453.47;;;2.16;100.00
27202;BME280;14717;46.924;15.474;2024-02-04T08:00:03;98444.13;;;2.23;100.00
27202;BME280;14717;46.924;15.474;2024-02-04T08:02:30;98465.03;;;2.29;100.00
27202;BME280;14717;46.924;15.474;2024-02-04T08:04:56;98462.56;;;2.46;100.00
27202;BME280;14717;46.924;15.474;2024-02-04T08:07:22;98452.19;;;2.54;100.00
27202;BME280;14717;46.924;15.474;2024-02-04T08:09:48;98444.59;;;2.56;100.00
27202;BME280;14717;46.924;15.474;2024-02-04T08:12:16;98455.06;;;2.59;100.00
27202;BME280;14717;46.924;15.474;2024-02-04T08:14:41;98449.22;;;2.73;100.00
27202;BME280;14717;46.924;15.474;2024-02-04T08:17:06;98433.50;;;2.87;100.00
27202;BME280;14717;46.924;15.474;2024-02-04T08:19:32;98429.88;;;2.93;100.00
27202;BME280;14717;46.924;15.474;2024-02-04T08:21:57;98426.66;;;2.95;100.00
27202;BME280;14717;46.924;15.474;2024-02-04T08:24:24;98433.22;;;3.06;100.00
27202;BME280;14717;46.924;15.474;2024-02-04T08:26:49;98439.97;;;3.33;100.00
27202;BME280;14717;46.924;15.474;2024-02-04T08:29:15;98428.25;;;3.55;100.00
27202;BME280;14717;46.924;15.474;2024-02-04T08:31:40;98433.50;;;3.68;100.00
27202;BME280;14717;46.924;15.474;2024-02-04T08:34:05;98421.28;;;3.81;100.00
27202;BME280;14717;46.924;15.474;2024-02-04T08:36:32;98439.22;;;4.00;100.00
27202;BME280;14717;46.924;15.474;2024-02-04T08:38:58;98438.50;;;4.16;100.00
27202;BME280;14717;46.924;15.474;2024-02-04T08:41:23;98434.44;;;4.30;100.00
27202;BME280;14717;46.924;15.474;2024-02-04T08:43:49;98441.81;;;4.41;100.00
27202;BME280;14717;46.924;15.474;2024-02-04T08:46:14;98439.66;;;4.43;100.00
27202;BME280;14717;46.924;15.474;2024-02-04T08:49:00;98436.91;;;4.65;100.00
27202;BME280;14717;46.924;15.474;2024-02-04T08:51:26;98422.41;;;4.65;100.00
27202;BME280;14717;46.924;15.474;2024-02-04T08:53:53;98419.13;;;4.79;100.00
27202;BME280;14717;46.924;15.474;2024-02-04T08:56:18;98422.16;;;4.94;100.00
27202;BME280;14717;46.924;15.474;2024-02-04T08:58:45;98401.31;;;5.05;100.00
27202;BME280;14717;46.924;15.474;2024-02-04T09:01:10;98403.47;;;5.19;100.00
27202;BME280;14717;46.924;15.474;2024-02-04T09:03:36;98425.59;;;5.45;100.00
27202;BME280;14717;46.924;15.474;2024-02-04T09:06:03;98430.78;;;5.58;100.00
27202;BME280;14717;46.924;15.474;2024-02-04T09:08:28;98431.28;;;5.71;100.00
27202;BME280;14717;46.924;15.474;2024-02-04T09:10:54;98437.13;;;5.91;100.00
27202;BME280;14717;46.924;15.474;2024-02-04T09:13:23;98444.13;;;5.82;100.00
27202;BME280;14717;46.924;15.474;2024-02-04T09:15:50;98452.69;;;6.02;100.00
27202;BME280;14717;46.924;15.474;2024-02-04T09:18:15;98431.81;;;6.01;100.00
27202;BME280;14717;46.924;15.474;2024-02-04T09:20:41;98423.75;;;6.11;100.00
27202;BME280;14717;46.924;15.474;2024-02-04T09:23:10;98433.53;;;6.39;100.00
27202;BME280;14717;46.924;15.474;2024-02-04T09:25:37;98428.25;;;6.54;100.00
27202;BME280;14717;46.924;15.474;2024-02-04T09:28:03;98407.38;;;6.75;100.00
27202;BME280;14717;46.924;15.474;2024-02-04T09:30:28;98426.41;;;7.02;100.00
27202;BME280;14717;46.924;15.474;2024-02-04T09:32:53;98424.06;;;7.37;100.00
27202;BME280;14717;46.924;15.474;2024-02-04T09:35:19;98425.94;;;7.31;100.00
27202;BME280;14717;46.924;15.474;2024-02-04T09:37:45;98419.22;;;7.22;100.00
27202;BME280;14717;46.924;15.474;2024-02-04T09:40:11;98388.13;;;7.17;100.00
27202;BME280;14717;46.924;15.474;2024-02-04T09:42:37;98386.09;;;7.34;100.00
27202;BME280;14717;46.924;15.474;2024-02-04T09:45:06;98390.84;;;7.69;100.00
27202;BME280;14717;46.924;15.474;2024-02-04T09:47:32;98398.78;;;7.97;100.00
27202;BME280;14717;46.924;15.474;2024-02-04T09:50:00;98396.53;;;8.25;100.00
27202;BME280;14717;46.924;15.474;2024-02-04T09:52:29;98395.28;;;8.48;100.00
27202;BME280;14717;46.924;15.474;2024-02-04T09:55:04;98394.06;;;8.75;100.00
27202;BME280;14717;46.924;15.474;2024-02-04T09:57:45;98393.31;;;8.89;99.47
27202;BME280;14717;46.924;15.474;2024-02-04T10:00:11;98399.44;;;9.06;97.58
27202;BME280;14717;46.924;15.474;2024-02-04T10:03:13;98406.94;;;9.15;95.60
27202;BME280;14717;46.924;15.474;2024-02-04T10:05:48;98389.25;;;9.11;95.08
27202;BME280;14717;46.924;15.474;2024-02-04T10:08:14;98395.31;;;9.13;94.43
27202;BME280;14717;46.924;15.474;2024-02-04T10:10:40;98399.72;;;9.09;94.88
27202;BME280;14717;46.924;15.474;2024-02-04T10:13:13;98393.69;;;9.12;94.62
27202;BME280;14717;46.924;15.474;2024-02-04T10:15:44;98390.41;;;9.20;95.16
27202;BME280;14717;46.924;15.474;2024-02-04T10:18:12;98381.06;;;9.41;94.83
27202;BME280;14717;46.924;15.474;2024-02-04T10:20:51;98384.41;;;9.73;94.42
27202;BME280;14717;46.924;15.474;2024-02-04T10:23:16;98395.50;;;9.92;93.88
27202;BME280;14717;46.924;15.474;2024-02-04T10:25:42;98394.94;;;10.15;93.62
27202;BME280;14717;46.924;15.474;2024-02-04T10:28:08;98375.31;;;10.36;89.87
27202;BME280;14717;46.924;15.474;2024-02-04T10:30:39;98362.94;;;10.24;88.37
27202;BME280;14717;46.924;15.474;2024-02-04T10:33:06;98376.16;;;10.37;87.58
27202;BME280;14717;46.924;15.474;2024-02-04T10:35:34;98367.88;;;10.47;85.68
27202;BME280;14717;46.924;15.474;2024-02-04T10:38:08;98358.13;;;10.64;83.82
27202;BME280;14717;46.924;15.474;2024-02-04T10:40:37;98348.44;;;10.76;81.55
27202;BME280;14717;46.924;15.474;2024-02-04T10:43:37;98328.41;;;10.94;81.87
27202;BME280;14717;46.924;15.474;2024-02-04T10:46:23;98322.44;;;11.25;78.57
27202;BME280;14717;46.924;15.474;2024-02-04T10:49:03;98315.19;;;11.39;81.56
27202;BME280;14717;46.924;15.474;2024-02-04T10:51:30;98302.09;;;11.54;82.21
27202;BME280;14717;46.924;15.474;2024-02-04T10:53:56;98308.06;;;11.66;81.08
27202;BME280;14717;46.924;15.474;2024-02-04T10:56:58;98298.00;;;11.80;78.69
27202;BME280;14717;46.924;15.474;2024-02-04T11:01:49;98298.31;;;12.07;73.46
27202;BME280;14717;46.924;15.474;2024-02-04T11:04:16;98290.31;;;12.29;73.84
27202;BME280;14717;46.924;15.474;2024-02-04T11:06:42;98284.66;;;12.38;72.09
27202;BME280;14717;46.924;15.474;2024-02-04T11:09:09;98297.84;;;12.51;73.28
27202;BME280;14717;46.924;15.474;2024-02-04T11:11:39;98287.72;;;12.60;71.45
27202;BME280;14717;46.924;15.474;2024-02-04T11:14:06;98284.44;;;12.58;73.50
27202;BME280;14717;46.924;15.474;2024-02-04T11:16:56;98290.41;;;12.70;68.75
27202;BME280;14717;46.924;15.474;2024-02-04T11:22:21;98285.69;;;12.94;67.12
27202;BME280;14717;46.924;15.474;2024-02-04T11:25:15;98279.41;;;13.07;67.32
27202;BME280;14717;46.924;15.474;2024-02-04T11:27:45;98284.31;;;13.15;64.46
27202;BME280;14717;46.924;15.474;2024-02-04T11:30:11;98280.59;;;13.37;66.75
27202;BME280;14717;46.924;15.474;2024-02-04T11:32:36;98279.03;;;13.50;67.45
27202;BME280;14717;46.924;15.474;2024-02-04T11:35:02;98276.94;;;13.42;64.93
27202;BME280;14717;46.924;15.474;2024-02-04T11:37:28;98275.38;;;13.36;63.82
27202;BME280;14717;46.924;15.474;2024-02-04T11:39:56;98262.00;;;13.56;62.83
27202;BME280;14717;46.924;15.474;2024-02-04T11:42:31;98255.47;;;13.65;61.71
27202;BME280;14717;46.924;15.474;2024-02-04T11:45:09;98268.34;;;13.75;62.24
27202;BME280;14717;46.924;15.474;2024-02-04T11:47:37;98257.75;;;13.77;60.92
27202;BME280;14717;46.924;15.474;2024-02-04T11:50:03;98252.03;;;13.87;58.74
27202;BME280;14717;46.924;15.474;2024-02-04T11:52:29;98238.97;;;13.87;58.60
27202;BME280;14717;46.924;15.474;2024-02-04T11:54:54;98235.53;;;13.77;58.06
27202;BME280;14717;46.924;15.474;2024-02-04T11:57:20;98239.31;;;13.99;59.69
27202;BME280;14717;46.924;15.474;2024-02-04T11:59:46;98238.34;;;14.08;54.57
27202;BME280;14717;46.924;15.474;2024-02-04T12:02:12;98231.34;;;14.11;53.13
27202;BME280;14717;46.924;15.474;2024-02-04T12:04:40;98229.44;;;14.38;53.27
27202;BME280;14717;46.924;15.474;2024-02-04T12:07:07;98218.19;;;14.56;53.05
27202;BME280;14717;46.924;15.474;2024-02-04T12:09:34;98219.66;;;14.67;52.00
27202;BME280;14717;46.924;15.474;2024-02-04T12:12:00;98203.16;;;14.71;51.23
27202;BME280;14717;46.924;15.474;2024-02-04T12:14:26;98206.53;;;14.81;50.08
27202;BME280;14717;46.924;15.474;2024-02-04T12:16:52;98201.56;;;14.91;49.31
27202;BME280;14717;46.924;15.474;2024-02-04T12:19:17;98194.88;;;14.92;47.69
27202;BME280;14717;46.924;15.474;2024-02-04T12:21:43;98181.47;;;14.94;48.55
27202;BME280;14717;46.924;15.474;2024-02-04T12:24:08;98193.28;;;15.00;48.43
27202;BME280;14717;46.924;15.474;2024-02-04T12:26:34;98192.25;;;15.09;48.26
27202;BME280;14717;46.924;15.474;2024-02-04T12:29:00;98187.84;;;14.95;47.87
27202;BME280;14717;46.924;15.474;2024-02-04T12:31:26;98179.69;;;15.12;49.06
27202;BME280;14717;46.924;15.474;2024-02-04T12:34:00;98184.91;;;15.27;48.38
27202;BME280;14717;46.924;15.474;2024-02-04T12:36:29;98174.84;;;15.17;47.23
27202;BME280;14717;46.924;15.474;2024-02-04T12:38:56;98168.78;;;15.15;47.72
27202;BME280;14717;46.924;15.474;2024-02-04T12:41:25;98165.53;;;15.08;48.13
27202;BME280;14717;46.924;15.474;2024-02-04T12:43:52;98155.94;;;15.14;48.50
27202;BME280;14717;46.924;15.474;2024-02-04T12:46:18;98158.66;;;15.19;47.44
27202;BME280;14717;46.924;15.474;2024-02-04T12:48:44;98171.44;;;15.20;47.98
27202;BME280;14717;46.924;15.474;2024-02-04T12:51:10;98160.41;;;15.15;46.95
27202;BME280;14717;46.924;15.474;2024-02-04T12:53:36;98168.66;;;15.20;48.87
27202;BME280;14717;46.924;15.474;2024-02-04T12:56:02;98174.41;;;15.24;48.28
27202;BME280;14717;46.924;15.474;2024-02-04T12:58:27;98168.22;;;15.27;48.86